sensor_id;sensor_type;location;lat;lon;timestamp;temperature;humidity
13464;DHT22;6804;48.774;9.174;2023-05-07T00:01:01;17.30;99.90
13464;DHT22;6804;48.774;9.174;2023-05-07T00:03:28;17.30;99.90
13464;DHT22;6804;48.774;9.174;2023-05-07T00:05:59;17.30;99.90
13464;DHT22;6804;48.774;9.174;2023-05-07T00:08:26;17.30;99.90
13464;DHT22;6804;48.774;9.174;2023-05-07T00:10:54;17.30;99.90
13464;DHT22;6804;48.774;9.174;2023-05-07T00:13:23;17.20;99.90
13464;DHT22;6804;48.774;9.174;2023-05-07T00:15:50;17.20;99.90
13464;DHT22;6804;48.774;9.174;2023-05-07T00:18:20;17.10;99.90
13464;DHT22;6804;48.774;9.174;2023-05-07T00:20:51;17.10;99.90
13464;DHT22;6804;48.774;9.174;2023-05-07T00:23:21;17.00;99.90
13464;DHT22;6804;48.774;9.174;2023-05-07T00:25:49;17.00;99.90
13464;DHT22;6804;48.774;9.174;2023-05-07T00:28:26;17.00;99.90
13464;DHT22;6804;48.774;9.174;2023-05-07T00:30:53;16.90;99.90
13464;DHT22;6804;48.774;9.174;2023-05-07T00:33:21;16.90;99.90
13464;DHT22;6804;48.774;9.174;2023-05-07T00:35:50;16.90;99.90
13464;DHT22;6804;48.774;9.174;2023-05-07T00:38:18;16.90;99.90
13464;DHT22;6804;48.774;9.174;2023-05-07T00:40:46;16.90;99.90
13464;DHT22;6804;48.774;9.174;2023-05-07T00:43:13;17.00;99.90
13464;DHT22;6804;48.774;9.174;2023-05-07T00:45:43;17.00;99.90
13464;DHT22;6804;48.774;9.174;2023-05-07T00:48:11;16.90;99.90
13464;DHT22;6804;48.774;9.174;2023-05-07T00:50:39;16.90;99.90
13464;DHT22;6804;48.774;9.174;2023-05-07T00:53:12;16.80;99.90
13464;DHT22;6804;48.774;9.174;2023-05-07T00:55:40;16.80;99.90
13464;DHT22;6804;48.774;9.174;2023-05-07T00:58:08;16.80;99.90
13464;DHT22;6804;48.774;9.174;2023-05-07T01:00:36;16.80;99.90
13464;DHT22;6804;48.774;9.174;2023-05-07T01:03:05;16.80;99.90
13464;DHT22;6804;48.774;9.174;2023-05-07T01:05:34;16.80;99.90
13464;DHT22;6804;48.774;9.174;2023-05-07T01:08:04;16.90;99.90
13464;DHT22;6804;48.774;9.174;2023-05-07T01:10:35;16.90;99.90
13464;DHT22;6804;48.774;9.174;2023-05-07T01:13:05;16.90;99.90
13464;DHT22;6804;48.774;9.174;2023-05-07T01:15:33;16.90;99.90
13464;DHT22;6804;48.774;9.174;2023-05-07T01:18:04;16.90;99.90
13464;DHT22;6804;48.774;9.174;2023-05-07T01:20:33;16.90;99.90
13464;DHT22;6804;48.774;9.174;2023-05-07T01:23:04;16.80;99.90
13464;DHT22;6804;48.774;9.174;2023-05-07T01:25:32;16.70;99.90
13464;DHT22;6804;48.774;9.174;2023-05-07T01:28:00;16.70;99.90
13464;DHT22;6804;48.774;9.174;2023-05-07T01:30:35;16.60;99.90
13464;DHT22;6804;48.774;9.174;2023-05-07T01:33:09;16.50;99.90
13464;DHT22;6804;48.774;9.174;2023-05-07T01:35:46;16.60;99.90
13464;DHT22;6804;48.774;9.174;2023-05-07T01:38:16;16.50;99.90
13464;DHT22;6804;48.774;9.174;2023-05-07T01:40:44;16.60;99.90
13464;DHT22;6804;48.774;9.174;2023-05-07T01:43:12;16.50;99.90
13464;DHT22;6804;48.774;9.174;2023-05-07T01:45:40;16.40;99.90
13464;DHT22;6804;48.774;9.174;2023-05-07T01:48:09;16.30;99.90
13464;DHT22;6804;48.774;9.174;2023-05-07T01:50:37;16.30;99.90
13464;DHT22;6804;48.774;9.174;2023-05-07T01:53:05;16.30;99.90
13464;DHT22;6804;48.774;9.174;2023-05-07T01:55:35;16.30;99.90
13464;DHT22;6804;48.774;9.174;2023-05-07T01:58:02;16.40;99.90
13464;DHT22;6804;48.774;9.174;2023-05-07T02:03:00;16.40;99.90
13464;DHT22;6804;48.774;9.174;2023-05-07T02:05:33;16.40;99.90
13464;DHT22;6804;48.774;9.174;2023-05-07T02:08:02;16.40;99.90
13464;DHT22;6804;48.774;9.174;2023-05-07T02:10:34;16.40;99.90
13464;DHT22;6804;48.774;9.174;2023-05-07T02:13:02;16.40;99.90
13464;DHT22;6804;48.774;9.174;2023-05-07T02:15:30;16.40;99.90
13464;DHT22;6804;48.774;9.174;2023-05-07T02:18:02;16.40;99.90
13464;DHT22;6804;48.774;9.174;2023-05-07T02:20:31;16.30;99.90
13464;DHT22;6804;48.774;9.174;2023-05-07T02:22:59;16.30;99.90
13464;DHT22;6804;48.774;9.174;2023-05-07T02:25:26;16.30;99.90
13464;DHT22;6804;48.774;9.174;2023-05-07T02:27:56;16.30;99.90
13464;DHT22;6804;48.774;9.174;2023-05-07T02:30:25;16.30;99.90
13464;DHT22;6804;48.774;9.174;2023-05-07T02:32:55;16.20;99.90
13464;DHT22;6804;48.774;9.174;2023-05-07T02:35:24;16.20;99.90
13464;DHT22;6804;48.774;9.174;2023-05-07T02:37:52;16.10;99.90
13464;DHT22;6804;48.774;9.174;2023-05-07T02:40:22;16.00;99.90
13464;DHT22;6804;48.774;9.174;2023-05-07T02:42:50;16.00;99.90
13464;DHT22;6804;48.774;9.174;2023-05-07T02:45:18;15.90;99.90
13464;DHT22;6804;48.774;9.174;2023-05-07T02:47:46;15.90;99.90
13464;DHT22;6804;48.774;9.174;2023-05-07T02:50:13;15.90;99.90
13464;DHT22;6804;48.774;9.174;2023-05-07T02:52:46;15.90;99.90
13464;DHT22;6804;48.774;9.174;2023-05-07T02:55:16;15.90;99.90
13464;DHT22;6804;48.774;9.174;2023-05-07T02:57:44;15.90;99.90
13464;DHT22;6804;48.774;9.174;2023-05-07T03:00:16;15.90;99.90
13464;DHT22;6804;48.774;9.174;2023-05-07T03:02:45;15.90;99.90
13464;DHT22;6804;48.774;9.174;2023-05-07T03:05:13;15.90;99.90
13464;DHT22;6804;48.774;9.174;2023-05-07T03:07:40;15.80;99.90
13464;DHT22;6804;48.774;9.174;2023-05-07T03:10:10;15.80;99.90
13464;DHT22;6804;48.774;9.174;2023-05-07T03:12:38;15.80;99.90
13464;DHT22;6804;48.774;9.174;2023-05-07T03:15:06;15.80;99.90
13464;DHT22;6804;48.774;9.174;2023-05-07T03:17:37;15.80;99.90
13464;DHT22;6804;48.774;9.174;2023-05-07T03:20:07;15.90;99.90
13464;DHT22;6804;48.774;9.174;2023-05-07T03:22:35;15.80;99.90
13464;DHT22;6804;48.774;9.174;2023-05-07T03:25:09;15.80;99.90
13464;DHT22;6804;48.774;9.174;2023-05-07T03:27:36;15.70;99.90
13464;DHT22;6804;48.774;9.174;2023-05-07T03:30:05;15.70;99.90
13464;DHT22;6804;48.774;9.174;2023-05-07T03:32:32;15.70;99.90
13464;DHT22;6804;48.774;9.174;2023-05-07T03:35:05;15.60;99.90
13464;DHT22;6804;48.774;9.174;2023-05-07T03:37:38;15.60;99.90
13464;DHT22;6804;48.774;9.174;2023-05-07T03:40:06;15.50;99.90
13464;DHT22;6804;48.774;9.174;2023-05-07T03:42:35;15.50;99.90
13464;DHT22;6804;48.774;9.174;2023-05-07T03:45:03;15.40;99.90
13464;DHT22;6804;48.774;9.174;2023-05-07T03:47:32;15.40;99.90
13464;DHT22;6804;48.774;9.174;2023-05-07T03:49:59;15.30;99.90
13464;DHT22;6804;48.774;9.174;2023-05-07T03:52:31;15.30;99.90
13464;DHT22;6804;48.774;9.174;2023-05-07T03:54:58;15.30;99.90
13464;DHT22;6804;48.774;9.174;2023-05-07T03:57:28;15.30;99.90
13464;DHT22;6804;48.774;9.174;2023-05-07T03:59:58;15.20;99.90
13464;DHT22;6804;48.774;9.174;2023-05-07T04:02:25;15.30;99.90
13464;DHT22;6804;48.774;9.174;2023-05-07T04:04:53;15.20;99.90
13464;DHT22;6804;48.774;9.174;2023-05-07T04:07:20;15.20;99.90
13464;DHT22;6804;48.774;9.174;2023-05-07T04:09:49;15.20;99.90
13464;DHT22;6804;48.774;9.174;2023-05-07T04:12:16;15.10;99.90
13464;DHT22;6804;48.774;9.174;2023-05-07T04:14:44;15.10;99.90
13464;DHT22;6804;48.774;9.174;2023-05-07T04:17:14;15.10;99.90
13464;DHT22;6804;48.774;9.174;2023-05-07T04:19:44;15.10;99.90
13464;DHT22;6804;48.774;9.174;2023-05-07T04:22:12;15.10;99.90
13464;DHT22;6804;48.774;9.174;2023-05-07T04:24:39;15.10;99.90
13464;DHT22;6804;48.774;9.174;2023-05-07T04:27:08;15.20;99.90
13464;DHT22;6804;48.774;9.174;2023-05-07T04:29:35;15.20;99.90
13464;DHT22;6804;48.774;9.174;2023-05-07T04:32:08;15.20;99.90
13464;DHT22;6804;48.774;9.174;2023-05-07T04:34:35;15.20;99.90
13464;DHT22;6804;48.774;9.174;2023-05-07T04:37:03;15.20;99.90
13464;DHT22;6804;48.774;9.174;2023-05-07T04:39:30;15.20;99.90
13464;DHT22;6804;48.774;9.174;2023-05-07T04:41:57;15.30;99.90
13464;DHT22;6804;48.774;9.174;2023-05-07T04:44:26;15.30;99.90
13464;DHT22;6804;48.774;9.174;2023-05-07T04:46:53;15.40;99.90
13464;DHT22;6804;48.774;9.174;2023-05-07T04:49:21;15.50;99.90
13464;DHT22;6804;48.774;9.174;2023-05-07T04:51:48;15.50;99.90
13464;DHT22;6804;48.774;9.174;2023-05-07T04:54:18;15.40;99.90
13464;DHT22;6804;48.774;9.174;2023-05-07T04:56:45;15.50;99.90
13464;DHT22;6804;48.774;9.174;2023-05-07T04:59:15;15.50;99.90
13464;DHT22;6804;48.774;9.174;2023-05-07T05:01:46;15.50;99.90
13464;DHT22;6804;48.774;9.174;2023-05-07T05:04:14;15.50;99.90
13464;DHT22;6804;48.774;9.174;2023-05-07T05:06:41;15.40;99.90
13464;DHT22;6804;48.774;9.174;2023-05-07T05:09:08;15.40;99.90
13464;DHT22;6804;48.774;9.174;2023-05-07T05:11:35;15.30;99.90
13464;DHT22;6804;48.774;9.174;2023-05-07T05:14:03;15.30;99.90
13464;DHT22;6804;48.774;9.174;2023-05-07T05:16:30;15.30;99.90
13464;DHT22;6804;48.774;9.174;2023-05-07T05:18:59;15.40;99.90
13464;DHT22;6804;48.774;9.174;2023-05-07T05:21:26;15.40;99.90
13464;DHT22;6804;48.774;9.174;2023-05-07T05:23:56;15.40;99.90
13464;DHT22;6804;48.774;9.174;2023-05-07T05:26:23;15.50;99.90
13464;DHT22;6804;48.774;9.174;2023-05-07T05:28:52;15.50;99.90
13464;DHT22;6804;48.774;9.174;2023-05-07T05:31:22;15.60;99.90
13464;DHT22;6804;48.774;9.174;2023-05-07T05:33:49;15.90;99.90
13464;DHT22;6804;48.774;9.174;2023-05-07T05:36:24;16.20;99.90
13464;DHT22;6804;48.774;9.174;2023-05-07T05:38:51;16.50;99.90
13464;DHT22;6804;48.774;9.174;2023-05-07T05:41:18;16.70;99.90
13464;DHT22;6804;48.774;9.174;2023-05-07T05:43:46;16.90;99.90
13464;DHT22;6804;48.774;9.174;2023-05-07T05:46:21;16.90;99.90
13464;DHT22;6804;48.774;9.174;2023-05-07T05:48:50;16.80;99.90
13464;DHT22;6804;48.774;9.174;2023-05-07T05:51:17;17.00;99.90
13464;DHT22;6804;48.774;9.174;2023-05-07T05:53:46;17.20;99.90
13464;DHT22;6804;48.774;9.174;2023-05-07T05:56:14;17.50;99.90
13464;DHT22;6804;48.774;9.174;2023-05-07T05:58:44;17.60;99.90
13464;DHT22;6804;48.774;9.174;2023-05-07T06:01:11;17.60;99.90
13464;DHT22;6804;48.774;9.174;2023-05-07T06:03:39;17.50;99.90
13464;DHT22;6804;48.774;9.174;2023-05-07T06:06:12;17.30;99.90
13464;DHT22;6804;48.774;9.174;2023-05-07T06:08:43;17.20;99.90
13464;DHT22;6804;48.774;9.174;2023-05-07T06:11:12;17.30;99.90
13464;DHT22;6804;48.774;9.174;2023-05-07T06:13:42;17.50;99.90
13464;DHT22;6804;48.774;9.174;2023-05-07T06:16:12;17.80;99.90
13464;DHT22;6804;48.774;9.174;2023-05-07T06:18:39;18.10;99.90
13464;DHT22;6804;48.774;9.174;2023-05-07T06:21:10;18.40;99.90
13464;DHT22;6804;48.774;9.174;2023-05-07T06:23:37;18.50;99.90
13464;DHT22;6804;48.774;9.174;2023-05-07T06:26:06;18.60;99.90
13464;DHT22;6804;48.774;9.174;2023-05-07T06:28:35;18.80;99.90
13464;DHT22;6804;48.774;9.174;2023-05-07T06:31:15;18.80;99.90
13464;DHT22;6804;48.774;9.174;2023-05-07T06:33:44;18.70;99.90
13464;DHT22;6804;48.774;9.174;2023-05-07T06:36:11;18.50;99.90
13464;DHT22;6804;48.774;9.174;2023-05-07T06:38:38;18.20;99.90
13464;DHT22;6804;48.774;9.174;2023-05-07T06:41:06;18.00;99.90
13464;DHT22;6804;48.774;9.174;2023-05-07T06:43:35;18.00;99.90
13464;DHT22;6804;48.774;9.174;2023-05-07T06:46:03;18.10;99.90
13464;DHT22;6804;48.774;9.174;2023-05-07T06:48:30;18.10;99.90
13464;DHT22;6804;48.774;9.174;2023-05-07T06:50:57;18.20;99.90
13464;DHT22;6804;48.774;9.174;2023-05-07T06:53:25;18.20;99.90
13464;DHT22;6804;48.774;9.174;2023-05-07T06:55:54;18.00;99.90
13464;DHT22;6804;48.774;9.174;2023-05-07T06:58:21;17.90;99.90
13464;DHT22;6804;48.774;9.174;2023-05-07T07:00:52;18.10;99.90
13464;DHT22;6804;48.774;9.174;2023-05-07T07:03:24;18.30;99.90
13464;DHT22;6804;48.774;9.174;2023-05-07T07:05:52;18.30;99.90
13464;DHT22;6804;48.774;9.174;2023-05-07T07:08:22;18.30;99.90
13464;DHT22;6804;48.774;9.174;2023-05-07T07:10:49;18.50;99.90
13464;DHT22;6804;48.774;9.174;2023-05-07T07:13:20;18.60;99.90
13464;DHT22;6804;48.774;9.174;2023-05-07T07:15:47;18.90;99.90
13464;DHT22;6804;48.774;9.174;2023-05-07T07:18:16;19.20;99.90
13464;DHT22;6804;48.774;9.174;2023-05-07T07:20:45;19.60;99.90
13464;DHT22;6804;48.774;9.174;2023-05-07T07:23:15;19.90;99.90
13464;DHT22;6804;48.774;9.174;2023-05-07T07:25:45;20.00;99.90
13464;DHT22;6804;48.774;9.174;2023-05-07T07:28:15;20.20;99.90
13464;DHT22;6804;48.774;9.174;2023-05-07T07:30:46;20.50;99.90
13464;DHT22;6804;48.774;9.174;2023-05-07T07:33:13;20.80;99.90
13464;DHT22;6804;48.774;9.174;2023-05-07T07:35:43;20.70;99.90
13464;DHT22;6804;48.774;9.174;2023-05-07T07:38:13;20.90;99.90
13464;DHT22;6804;48.774;9.174;2023-05-07T07:40:43;21.10;99.90
13464;DHT22;6804;48.774;9.174;2023-05-07T07:43:12;21.20;99.90
13464;DHT22;6804;48.774;9.174;2023-05-07T07:45:44;21.40;99.90
13464;DHT22;6804;48.774;9.174;2023-05-07T07:48:14;21.70;99.90
13464;DHT22;6804;48.774;9.174;2023-05-07T07:50:48;21.90;99.90
13464;DHT22;6804;48.774;9.174;2023-05-07T07:53:16;21.80;99.90
13464;DHT22;6804;48.774;9.174;2023-05-07T07:55:46;21.40;99.90
13464;DHT22;6804;48.774;9.174;2023-05-07T07:58:16;21.30;99.90
13464;DHT22;6804;48.774;9.174;2023-05-07T08:00:46;21.50;99.90
13464;DHT22;6804;48.774;9.174;2023-05-07T08:03:14;21.70;99.90
13464;DHT22;6804;48.774;9.174;2023-05-07T08:05:44;21.80;99.90
13464;DHT22;6804;48.774;9.174;2023-05-07T08:08:13;22.00;99.90
13464;DHT22;6804;48.774;9.174;2023-05-07T08:10:40;22.10;99.90
13464;DHT22;6804;48.774;9.174;2023-05-07T08:13:08;21.90;99.90
13464;DHT22;6804;48.774;9.174;2023-05-07T08:15:35;21.80;99.90
13464;DHT22;6804;48.774;9.174;2023-05-07T08:18:08;21.90;99.90
13464;DHT22;6804;48.774;9.174;2023-05-07T08:20:36;22.20;99.90
13464;DHT22;6804;48.774;9.174;2023-05-07T08:23:05;22.20;99.90
13464;DHT22;6804;48.774;9.174;2023-05-07T08:25:34;21.90;99.90
13464;DHT22;6804;48.774;9.174;2023-05-07T08:28:06;21.90;99.90
13464;DHT22;6804;48.774;9.174;2023-05-07T08:30:33;21.90;99.90
13464;DHT22;6804;48.774;9.174;2023-05-07T08:33:03;21.80;99.90
13464;DHT22;6804;48.774;9.174;2023-05-07T08:35:34;22.10;99.90
13464;DHT22;6804;48.774;9.174;2023-05-07T08:38:02;22.40;99.90
13464;DHT22;6804;48.774;9.174;2023-05-07T08:40:37;22.60;99.90
13464;DHT22;6804;48.774;9.174;2023-05-07T08:43:06;22.90;99.90
13464;DHT22;6804;48.774;9.174;2023-05-07T08:45:39;23.00;99.90
13464;DHT22;6804;48.774;9.174;2023-05-07T08:48:09;23.30;99.90
13464;DHT22;6804;48.774;9.174;2023-05-07T08:50:41;23.60;99.90
13464;DHT22;6804;48.774;9.174;2023-05-07T08:53:12;23.90;99.90
13464;DHT22;6804;48.774;9.174;2023-05-07T08:55:41;24.10;99.90
13464;DHT22;6804;48.774;9.174;2023-05-07T08:58:09;24.40;99.90
13464;DHT22;6804;48.774;9.174;2023-05-07T09:00:36;24.60;99.90
13464;DHT22;6804;48.774;9.174;2023-05-07T09:03:05;24.80;99.90
13464;DHT22;6804;48.774;9.174;2023-05-07T09:05:32;25.00;99.90
13464;DHT22;6804;48.774;9.174;2023-05-07T09:08:02;25.10;99.80
13464;DHT22;6804;48.774;9.174;2023-05-07T09:10:33;25.20;99.40
13464;DHT22;6804;48.774;9.174;2023-05-07T09:13:02;25.20;99.20
13464;DHT22;6804;48.774;9.174;2023-05-07T09:15:30;25.30;98.90
13464;DHT22;6804;48.774;9.174;2023-05-07T09:17:59;25.20;98.60
13464;DHT22;6804;48.774;9.174;2023-05-07T09:20:30;24.80;99.30
13464;DHT22;6804;48.774;9.174;2023-05-07T09:22:57;24.70;99.70
13464;DHT22;6804;48.774;9.174;2023-05-07T09:25:28;24.90;99.80
13464;DHT22;6804;48.774;9.174;2023-05-07T09:27:56;25.10;98.90
13464;DHT22;6804;48.774;9.174;2023-05-07T09:30:27;25.30;98.20
13464;DHT22;6804;48.774;9.174;2023-05-07T09:32:55;24.60;98.90
13464;DHT22;6804;48.774;9.174;2023-05-07T09:35:23;24.00;99.80
13464;DHT22;6804;48.774;9.174;2023-05-07T09:37:53;24.00;99.90
13464;DHT22;6804;48.774;9.174;2023-05-07T09:40:25;24.30;99.50
13464;DHT22;6804;48.774;9.174;2023-05-07T09:43:01;24.70;99.00
13464;DHT22;6804;48.774;9.174;2023-05-07T09:45:39;24.80;98.10
13464;DHT22;6804;48.774;9.174;2023-05-07T09:48:08;25.00;98.50
13464;DHT22;6804;48.774;9.174;2023-05-07T09:50:39;25.20;97.90
13464;DHT22;6804;48.774;9.174;2023-05-07T09:53:17;25.30;97.00
13464;DHT22;6804;48.774;9.174;2023-05-07T09:55:45;25.10;97.80
13464;DHT22;6804;48.774;9.174;2023-05-07T09:58:13;25.30;98.10
13464;DHT22;6804;48.774;9.174;2023-05-07T10:00:43;25.40;97.10
13464;DHT22;6804;48.774;9.174;2023-05-07T10:03:14;25.70;96.90
13464;DHT22;6804;48.774;9.174;2023-05-07T10:05:42;25.80;96.10
13464;DHT22;6804;48.774;9.174;2023-05-07T10:08:13;26.00;96.20
13464;DHT22;6804;48.774;9.174;2023-05-07T10:10:46;26.00;95.90
13464;DHT22;6804;48.774;9.174;2023-05-07T10:13:14;25.80;95.50
13464;DHT22;6804;48.774;9.174;2023-05-07T10:15:47;25.30;96.70
13464;DHT22;6804;48.774;9.174;2023-05-07T10:18:15;25.40;96.90
13464;DHT22;6804;48.774;9.174;2023-05-07T10:20:52;25.60;96.70
13464;DHT22;6804;48.774;9.174;2023-05-07T10:23:23;25.90;96.50
13464;DHT22;6804;48.774;9.174;2023-05-07T10:25:52;26.10;95.60
13464;DHT22;6804;48.774;9.174;2023-05-07T10:28:22;26.10;95.60
13464;DHT22;6804;48.774;9.174;2023-05-07T10:30:59;26.30;95.70
13464;DHT22;6804;48.774;9.174;2023-05-07T10:33:29;26.20;93.90
13464;DHT22;6804;48.774;9.174;2023-05-07T10:35:59;26.00;95.30
13464;DHT22;6804;48.774;9.174;2023-05-07T10:38:28;26.20;95.80
13464;DHT22;6804;48.774;9.174;2023-05-07T10:40:58;26.50;95.10
13464;DHT22;6804;48.774;9.174;2023-05-07T10:43:39;26.50;94.10
13464;DHT22;6804;48.774;9.174;2023-05-07T10:46:15;25.90;94.90
13464;DHT22;6804;48.774;9.174;2023-05-07T10:49:08;25.40;95.50
13464;DHT22;6804;48.774;9.174;2023-05-07T10:51:40;25.00;96.20
13464;DHT22;6804;48.774;9.174;2023-05-07T10:54:23;24.50;97.10
13464;DHT22;6804;48.774;9.174;2023-05-07T10:56:53;24.70;97.30
13464;DHT22;6804;48.774;9.174;2023-05-07T10:59:37;25.00;97.20
13464;DHT22;6804;48.774;9.174;2023-05-07T11:02:12;25.30;96.70
13464;DHT22;6804;48.774;9.174;2023-05-07T11:04:41;25.40;96.30
13464;DHT22;6804;48.774;9.174;2023-05-07T11:07:41;25.30;95.80
13464;DHT22;6804;48.774;9.174;2023-05-07T11:10:20;24.90;96.50
13464;DHT22;6804;48.774;9.174;2023-05-07T11:15:51;23.90;96.80
13464;DHT22;6804;48.774;9.174;2023-05-07T11:18:20;23.90;96.70
13464;DHT22;6804;48.774;9.174;2023-05-07T11:20:53;24.20;96.80
13464;DHT22;6804;48.774;9.174;2023-05-07T11:26:44;24.30;95.70
13464;DHT22;6804;48.774;9.174;2023-05-07T11:29:13;24.40;94.90
13464;DHT22;6804;48.774;9.174;2023-05-07T11:31:43;24.20;94.90
13464;DHT22;6804;48.774;9.174;2023-05-07T11:34:22;24.20;94.40
13464;DHT22;6804;48.774;9.174;2023-05-07T11:36:50;24.20;94.10
13464;DHT22;6804;48.774;9.174;2023-05-07T11:39:31;24.10;94.40
13464;DHT22;6804;48.774;9.174;2023-05-07T11:42:01;24.10;94.30
13464;DHT22;6804;48.774;9.174;2023-05-07T11:44:42;24.00;94.30
13464;DHT22;6804;48.774;9.174;2023-05-07T11:47:13;23.90;94.20
13464;DHT22;6804;48.774;9.174;2023-05-07T11:49:47;23.90;94.40
13464;DHT22;6804;48.774;9.174;2023-05-07T11:52:14;23.90;94.80
13464;DHT22;6804;48.774;9.174;2023-05-07T11:54:49;24.00;96.10
13464;DHT22;6804;48.774;9.174;2023-05-07T11:57:17;24.00;96.50
13464;DHT22;6804;48.774;9.174;2023-05-07T11:59:46;24.10;96.90
13464;DHT22;6804;48.774;9.174;2023-05-07T12:02:14;24.10;96.90
13464;DHT22;6804;48.774;9.174;2023-05-07T12:04:42;24.20;97.00
13464;DHT22;6804;48.774;9.174;2023-05-07T12:07:13;24.20;97.30
13464;DHT22;6804;48.774;9.174;2023-05-07T12:09:42;24.20;97.20
13464;DHT22;6804;48.774;9.174;2023-05-07T12:12:13;24.20;97.60
13464;DHT22;6804;48.774;9.174;2023-05-07T12:14:44;24.20;98.40
13464;DHT22;6804;48.774;9.174;2023-05-07T12:17:13;24.10;99.90
13464;DHT22;6804;48.774;9.174;2023-05-07T12:19:43;23.90;99.90
13464;DHT22;6804;48.774;9.174;2023-05-07T12:22:13;23.60;99.80
13464;DHT22;6804;48.774;9.174;2023-05-07T12:24:45;23.30;99.90
13464;DHT22;6804;48.774;9.174;2023-05-07T12:27:13;23.00;99.60
13464;DHT22;6804;48.774;9.174;2023-05-07T12:29:44;22.70;99.90
13464;DHT22;6804;48.774;9.174;2023-05-07T12:32:14;22.50;99.90
13464;DHT22;6804;48.774;9.174;2023-05-07T12:34:45;22.20;99.90
13464;DHT22;6804;48.774;9.174;2023-05-07T12:37:15;22.00;99.90
13464;DHT22;6804;48.774;9.174;2023-05-07T12:39:47;21.80;99.90
13464;DHT22;6804;48.774;9.174;2023-05-07T12:42:25;21.60;99.90
13464;DHT22;6804;48.774;9.174;2023-05-07T12:44:53;21.50;99.90
13464;DHT22;6804;48.774;9.174;2023-05-07T12:47:21;21.50;99.90
13464;DHT22;6804;48.774;9.174;2023-05-07T12:49:49;21.40;99.90
13464;DHT22;6804;48.774;9.174;2023-05-07T12:52:19;21.30;99.90
13464;DHT22;6804;48.774;9.174;2023-05-07T12:54:48;21.10;99.90
13464;DHT22;6804;48.774;9.174;2023-05-07T12:57:19;20.90;99.90
13464;DHT22;6804;48.774;9.174;2023-05-07T12:59:47;20.80;99.90
13464;DHT22;6804;48.774;9.174;2023-05-07T13:02:15;20.70;99.90
13464;DHT22;6804;48.774;9.174;2023-05-07T13:04:46;20.50;99.90
13464;DHT22;6804;48.774;9.174;2023-05-07T13:07:13;20.40;99.90
13464;DHT22;6804;48.774;9.174;2023-05-07T13:09:43;20.30;99.90
13464;DHT22;6804;48.774;9.174;2023-05-07T13:12:10;20.10;99.90
13464;DHT22;6804;48.774;9.174;2023-05-07T13:14:38;19.90;99.90
13464;DHT22;6804;48.774;9.174;2023-05-07T13:17:06;19.90;99.90
13464;DHT22;6804;48.774;9.174;2023-05-07T13:19:33;19.90;99.90
13464;DHT22;6804;48.774;9.174;2023-05-07T13:22:03;19.90;99.90
13464;DHT22;6804;48.774;9.174;2023-05-07T13:24:31;19.80;99.90
13464;DHT22;6804;48.774;9.174;2023-05-07T13:27:00;19.80;99.90
13464;DHT22;6804;48.774;9.174;2023-05-07T13:29:30;19.80;99.90
13464;DHT22;6804;48.774;9.174;2023-05-07T13:32:00;19.80;99.90
13464;DHT22;6804;48.774;9.174;2023-05-07T13:34:28;19.70;99.90
13464;DHT22;6804;48.774;9.174;2023-05-07T13:36:55;19.60;99.90
13464;DHT22;6804;48.774;9.174;2023-05-07T13:39:23;19.70;99.90
13464;DHT22;6804;48.774;9.174;2023-05-07T13:41:51;19.60;99.90
13464;DHT22;6804;48.774;9.174;2023-05-07T13:44:22;19.60;99.90
13464;DHT22;6804;48.774;9.174;2023-05-07T13:46:53;19.50;99.90
13464;DHT22;6804;48.774;9.174;2023-05-07T13:49:20;19.30;99.90
13464;DHT22;6804;48.774;9.174;2023-05-07T13:51:48;18.90;99.90
13464;DHT22;6804;48.774;9.174;2023-05-07T13:54:16;18.90;99.90
13464;DHT22;6804;48.774;9.174;2023-05-07T13:56:46;18.90;99.90
13464;DHT22;6804;48.774;9.174;2023-05-07T13:59:16;18.90;99.90
13464;DHT22;6804;48.774;9.174;2023-05-07T14:01:45;19.10;99.90
13464;DHT22;6804;48.774;9.174;2023-05-07T14:04:13;19.30;99.90
13464;DHT22;6804;48.774;9.174;2023-05-07T14:06:40;19.30;99.90
13464;DHT22;6804;48.774;9.174;2023-05-07T14:09:07;19.20;99.90
13464;DHT22;6804;48.774;9.174;2023-05-07T14:11:37;19.10;99.90
13464;DHT22;6804;48.774;9.174;2023-05-07T14:14:05;19.10;99.90
13464;DHT22;6804;48.774;9.174;2023-05-07T14:16:32;19.00;99.90
13464;DHT22;6804;48.774;9.174;2023-05-07T14:19:05;19.00;99.90
13464;DHT22;6804;48.774;9.174;2023-05-07T14:21:32;18.90;99.90
13464;DHT22;6804;48.774;9.174;2023-05-07T14:24:03;18.90;99.90
13464;DHT22;6804;48.774;9.174;2023-05-07T14:26:32;18.90;99.90
13464;DHT22;6804;48.774;9.174;2023-05-07T14:29:00;18.90;99.90
13464;DHT22;6804;48.774;9.174;2023-05-07T14:31:27;18.90;99.90
13464;DHT22;6804;48.774;9.174;2023-05-07T14:33:57;18.80;99.90
13464;DHT22;6804;48.774;9.174;2023-05-07T14:36:26;18.80;99.90
13464;DHT22;6804;48.774;9.174;2023-05-07T14:38:58;18.80;99.90
13464;DHT22;6804;48.774;9.174;2023-05-07T14:41:29;18.80;99.90
13464;DHT22;6804;48.774;9.174;2023-05-07T14:43:57;18.70;99.90
13464;DHT22;6804;48.774;9.174;2023-05-07T14:46:27;18.70;99.90
13464;DHT22;6804;48.774;9.174;2023-05-07T14:48:55;18.70;99.90
13464;DHT22;6804;48.774;9.174;2023-05-07T14:51:26;18.70;99.90
13464;DHT22;6804;48.774;9.174;2023-05-07T14:53:57;18.70;99.90
13464;DHT22;6804;48.774;9.174;2023-05-07T14:56:26;18.80;99.90
13464;DHT22;6804;48.774;9.174;2023-05-07T14:58:56;18.80;99.90
13464;DHT22;6804;48.774;9.174;2023-05-07T15:01:25;18.80;99.90
13464;DHT22;6804;48.774;9.174;2023-05-07T15:03:53;18.80;99.90
13464;DHT22;6804;48.774;9.174;2023-05-07T15:06:21;18.80;99.90
13464;DHT22;6804;48.774;9.174;2023-05-07T15:08:51;18.80;99.90
13464;DHT22;6804;48.774;9.174;2023-05-07T15:11:18;18.80;99.90
13464;DHT22;6804;48.774;9.174;2023-05-07T15:13:49;18.80;99.90
13464;DHT22;6804;48.774;9.174;2023-05-07T15:16:19;18.80;99.90
13464;DHT22;6804;48.774;9.174;2023-05-07T15:18:48;18.80;99.90
13464;DHT22;6804;48.774;9.174;2023-05-07T15:21:19;18.90;99.90
13464;DHT22;6804;48.774;9.174;2023-05-07T15:23:46;18.90;99.90
13464;DHT22;6804;48.774;9.174;2023-05-07T15:26:18;18.90;99.90
13464;DHT22;6804;48.774;9.174;2023-05-07T15:28:46;18.90;99.90
13464;DHT22;6804;48.774;9.174;2023-05-07T15:31:14;19.00;99.90
13464;DHT22;6804;48.774;9.174;2023-05-07T15:33:50;19.00;99.90
13464;DHT22;6804;48.774;9.174;2023-05-07T15:36:18;19.10;99.90
13464;DHT22;6804;48.774;9.174;2023-05-07T15:38:49;19.10;99.90
13464;DHT22;6804;48.774;9.174;2023-05-07T15:41:18;19.10;99.90
13464;DHT22;6804;48.774;9.174;2023-05-07T15:43:48;19.00;99.90
13464;DHT22;6804;48.774;9.174;2023-05-07T15:46:18;19.10;99.90
13464;DHT22;6804;48.774;9.174;2023-05-07T15:48:46;19.10;99.90
13464;DHT22;6804;48.774;9.174;2023-05-07T15:51:16;19.10;99.90
13464;DHT22;6804;48.774;9.174;2023-05-07T15:53:45;19.10;99.90
13464;DHT22;6804;48.774;9.174;2023-05-07T15:56:15;18.80;99.90
13464;DHT22;6804;48.774;9.174;2023-05-07T15:58:44;18.50;99.90
13464;DHT22;6804;48.774;9.174;2023-05-07T16:01:18;18.30;99.90
13464;DHT22;6804;48.774;9.174;2023-05-07T16:06:30;18.10;99.90
13464;DHT22;6804;48.774;9.174;2023-05-07T16:09:00;18.20;99.90
13464;DHT22;6804;48.774;9.174;2023-05-07T16:11:28;18.20;99.90